sensor_id;sensor_type;location;lat;lon;timestamp;pressure;altitude;pressure_sealevel;temperature;humidity
73624;BME280;61921;53.226;-1.296;2023-04-01T00:02:07;98871.19;;;8.01;100.00
73624;BME280;61921;53.226;-1.296;2023-04-01T00:04:33;98873.02;;;7.91;100.00
73624;BME280;61921;53.226;-1.296;2023-04-01T00:06:58;98877.13;;;7.90;100.00
73624;BME280;61921;53.226;-1.296;2023-04-01T00:09:24;98880.29;;;7.84;100.00
73624;BME280;61921;53.226;-1.296;2023-04-01T00:11:49;98884.26;;;7.88;100.00
73624;BME280;61921;53.226;-1.296;2023-04-01T00:14:14;98884.95;;;7.85;100.00
73624;BME280;61921;53.226;-1.296;2023-04-01T00:16:39;98891.41;;;7.84;100.00
73624;BME280;61921;53.226;-1.296;2023-04-01T00:19:05;98889.81;;;7.89;100.00
73624;BME280;61921;53.226;-1.296;2023-04-01T00:21:30;98891.16;;;7.86;100.00
73624;BME280;61921;53.226;-1.296;2023-04-01T00:23:56;98893.29;;;8.02;100.00
73624;BME280;61921;53.226;-1.296;2023-04-01T00:26:21;98894.08;;;7.87;100.00
73624;BME280;61921;53.226;-1.296;2023-04-01T00:28:47;98897.17;;;7.83;100.00
73624;BME280;61921;53.226;-1.296;2023-04-01T00:31:12;98897.86;;;7.91;100.00
73624;BME280;61921;53.226;-1.296;2023-04-01T00:33:37;98901.74;;;7.92;100.00
73624;BME280;61921;53.226;-1.296;2023-04-01T00:36:08;98905.27;;;7.95;100.00
73624;BME280;61921;53.226;-1.296;2023-04-01T00:38:28;98905.38;;;7.87;100.00
73624;BME280;61921;53.226;-1.296;2023-04-01T00:40:57;98907.77;;;7.96;100.00
73624;BME280;61921;53.226;-1.296;2023-04-01T00:43:19;98909.22;;;7.89;100.00
73624;BME280;61921;53.226;-1.296;2023-04-01T00:45:45;98912.98;;;7.91;100.00
73624;BME280;61921;53.226;-1.296;2023-04-01T00:48:12;98914.78;;;7.98;100.00
73624;BME280;61921;53.226;-1.296;2023-04-01T00:50:35;98915.83;;;7.94;100.00
73624;BME280;61921;53.226;-1.296;2023-04-01T00:53:01;98916.97;;;7.89;100.00
73624;BME280;61921;53.226;-1.296;2023-04-01T00:55:27;98918.18;;;7.90;100.00
73624;BME280;61921;53.226;-1.296;2023-04-01T00:57:52;98918.86;;;7.83;100.00
73624;BME280;61921;53.226;-1.296;2023-04-01T01:00:16;98923.13;;;7.76;100.00
73624;BME280;61921;53.226;-1.296;2023-04-01T01:02:41;98924.16;;;7.68;100.00
73624;BME280;61921;53.226;-1.296;2023-04-01T01:05:07;98921.13;;;7.76;100.00
73624;BME280;61921;53.226;-1.296;2023-04-01T01:07:37;98929.35;;;7.74;100.00
73624;BME280;61921;53.226;-1.296;2023-04-01T01:10:02;98924.68;;;7.67;100.00
73624;BME280;61921;53.226;-1.296;2023-04-01T01:12:28;98925.78;;;7.68;100.00
73624;BME280;61921;53.226;-1.296;2023-04-01T01:14:57;98928.77;;;7.75;100.00
73624;BME280;61921;53.226;-1.296;2023-04-01T01:17:21;98931.19;;;7.63;100.00
73624;BME280;61921;53.226;-1.296;2023-04-01T01:20:00;98937.55;;;7.66;100.00
73624;BME280;61921;53.226;-1.296;2023-04-01T01:24:43;98938.70;;;7.70;100.00
73624;BME280;61921;53.226;-1.296;2023-04-01T01:26:59;98938.04;;;7.67;100.00
73624;BME280;61921;53.226;-1.296;2023-04-01T01:31:50;98945.52;;;7.57;100.00
73624;BME280;61921;53.226;-1.296;2023-04-01T01:34:17;98947.25;;;7.51;100.00
73624;BME280;61921;53.226;-1.296;2023-04-01T01:36:38;98955.93;;;7.58;100.00
73624;BME280;61921;53.226;-1.296;2023-04-01T01:39:03;98957.76;;;7.56;100.00
73624;BME280;61921;53.226;-1.296;2023-04-01T01:41:29;98961.09;;;7.60;100.00
73624;BME280;61921;53.226;-1.296;2023-04-01T01:43:53;98960.92;;;7.56;100.00
73624;BME280;61921;53.226;-1.296;2023-04-01T01:46:21;98961.85;;;7.58;100.00
73624;BME280;61921;53.226;-1.296;2023-04-01T01:48:44;98965.67;;;7.55;100.00
73624;BME280;61921;53.226;-1.296;2023-04-01T01:51:09;98968.34;;;7.55;100.00
73624;BME280;61921;53.226;-1.296;2023-04-01T01:53:35;98971.35;;;7.53;100.00
73624;BME280;61921;53.226;-1.296;2023-04-01T01:56:00;98973.39;;;7.51;100.00
73624;BME280;61921;53.226;-1.296;2023-04-01T01:58:29;98976.15;;;7.51;100.00
73624;BME280;61921;53.226;-1.296;2023-04-01T02:00:54;98979.36;;;7.43;100.00
73624;BME280;61921;53.226;-1.296;2023-04-01T02:03:16;98985.03;;;7.54;100.00
73624;BME280;61921;53.226;-1.296;2023-04-01T02:05:41;98987.12;;;7.45;100.00
73624;BME280;61921;53.226;-1.296;2023-04-01T02:08:09;98993.89;;;7.49;100.00
73624;BME280;61921;53.226;-1.296;2023-04-01T02:10:35;98999.78;;;7.46;100.00
73624;BME280;61921;53.226;-1.296;2023-04-01T02:13:00;99004.76;;;7.51;100.00
73624;BME280;61921;53.226;-1.296;2023-04-01T02:15:27;99008.64;;;7.53;100.00
73624;BME280;61921;53.226;-1.296;2023-04-01T02:17:49;99013.23;;;7.57;100.00
73624;BME280;61921;53.226;-1.296;2023-04-01T02:20:16;99014.88;;;7.58;100.00
73624;BME280;61921;53.226;-1.296;2023-04-01T02:22:42;99017.37;;;7.61;100.00
73624;BME280;61921;53.226;-1.296;2023-04-01T02:25:07;99020.99;;;7.56;100.00
73624;BME280;61921;53.226;-1.296;2023-04-01T02:27:31;99024.04;;;7.52;100.00
73624;BME280;61921;53.226;-1.296;2023-04-01T02:29:56;99022.81;;;7.52;100.00
73624;BME280;61921;53.226;-1.296;2023-04-01T02:32:22;99027.74;;;7.58;100.00
73624;BME280;61921;53.226;-1.296;2023-04-01T02:34:48;99030.56;;;7.57;100.00
73624;BME280;61921;53.226;-1.296;2023-04-01T02:37:13;99030.72;;;7.57;100.00
73624;BME280;61921;53.226;-1.296;2023-04-01T02:39:38;99032.53;;;7.50;100.00
73624;BME280;61921;53.226;-1.296;2023-04-01T02:42:04;99035.92;;;7.53;100.00
73624;BME280;61921;53.226;-1.296;2023-04-01T02:44:30;99035.84;;;7.54;100.00
73624;BME280;61921;53.226;-1.296;2023-04-01T02:46:55;99038.14;;;7.47;100.00
73624;BME280;61921;53.226;-1.296;2023-04-01T02:49:20;99042.90;;;7.51;100.00
73624;BME280;61921;53.226;-1.296;2023-04-01T02:51:46;99041.88;;;7.49;100.00
73624;BME280;61921;53.226;-1.296;2023-04-01T02:54:11;99046.24;;;7.41;100.00
73624;BME280;61921;53.226;-1.296;2023-04-01T02:56:37;99048.27;;;7.37;100.00
73624;BME280;61921;53.226;-1.296;2023-04-01T02:59:02;99050.38;;;7.37;100.00
73624;BME280;61921;53.226;-1.296;2023-04-01T03:01:28;99053.47;;;7.38;100.00
73624;BME280;61921;53.226;-1.296;2023-04-01T03:03:52;99053.73;;;7.40;100.00
73624;BME280;61921;53.226;-1.296;2023-04-01T03:06:18;99055.61;;;7.38;100.00
73624;BME280;61921;53.226;-1.296;2023-04-01T03:08:44;99058.79;;;7.36;100.00
73624;BME280;61921;53.226;-1.296;2023-04-01T03:11:10;99063.17;;;7.30;100.00
73624;BME280;61921;53.226;-1.296;2023-04-01T03:13:35;99068.85;;;7.40;100.00
73624;BME280;61921;53.226;-1.296;2023-04-01T03:16:01;99075.55;;;7.35;100.00
73624;BME280;61921;53.226;-1.296;2023-04-01T03:18:26;99078.67;;;7.33;100.00
73624;BME280;61921;53.226;-1.296;2023-04-01T03:20:52;99083.87;;;7.32;100.00
73624;BME280;61921;53.226;-1.296;2023-04-01T03:23:17;99088.25;;;7.32;100.00
73624;BME280;61921;53.226;-1.296;2023-04-01T03:25:43;99087.90;;;7.15;100.00
73624;BME280;61921;53.226;-1.296;2023-04-01T03:28:08;99090.78;;;7.23;100.00
73624;BME280;61921;53.226;-1.296;2023-04-01T03:30:34;99093.71;;;7.22;100.00
73624;BME280;61921;53.226;-1.296;2023-04-01T03:32:59;99092.69;;;7.26;100.00
73624;BME280;61921;53.226;-1.296;2023-04-01T03:35:25;99095.31;;;7.19;100.00
73624;BME280;61921;53.226;-1.296;2023-04-01T03:37:50;99099.06;;;7.25;100.00
73624;BME280;61921;53.226;-1.296;2023-04-01T03:40:16;99096.03;;;7.26;100.00
73624;BME280;61921;53.226;-1.296;2023-04-01T03:42:41;99098.55;;;7.27;100.00
73624;BME280;61921;53.226;-1.296;2023-04-01T03:45:07;99094.20;;;7.29;100.00
73624;BME280;61921;53.226;-1.296;2023-04-01T03:47:32;99093.54;;;7.38;100.00
73624;BME280;61921;53.226;-1.296;2023-04-01T03:49:57;99089.70;;;7.23;100.00
73624;BME280;61921;53.226;-1.296;2023-04-01T03:52:23;99095.11;;;7.23;100.00
73624;BME280;61921;53.226;-1.296;2023-04-01T03:54:49;99098.55;;;7.10;100.00
73624;BME280;61921;53.226;-1.296;2023-04-01T03:57:14;99102.69;;;7.10;100.00
73624;BME280;61921;53.226;-1.296;2023-04-01T03:59:40;99099.15;;;7.08;100.00
73624;BME280;61921;53.226;-1.296;2023-04-01T04:02:05;99102.05;;;7.08;100.00
73624;BME280;61921;53.226;-1.296;2023-04-01T04:04:30;99106.78;;;7.11;100.00
73624;BME280;61921;53.226;-1.296;2023-04-01T04:06:56;99111.77;;;7.11;100.00
73624;BME280;61921;53.226;-1.296;2023-04-01T04:09:22;99112.58;;;7.09;100.00
73624;BME280;61921;53.226;-1.296;2023-04-01T04:11:48;99115.94;;;7.06;100.00
73624;BME280;61921;53.226;-1.296;2023-04-01T04:14:13;99114.93;;;7.05;100.00
73624;BME280;61921;53.226;-1.296;2023-04-01T04:16:38;99115.94;;;7.07;100.00
73624;BME280;61921;53.226;-1.296;2023-04-01T04:19:04;99122.98;;;7.07;100.00
73624;BME280;61921;53.226;-1.296;2023-04-01T04:21:30;99125.65;;;7.07;100.00
73624;BME280;61921;53.226;-1.296;2023-04-01T04:23:55;99132.37;;;7.14;100.00
73624;BME280;61921;53.226;-1.296;2023-04-01T04:26:20;99136.32;;;7.06;100.00
73624;BME280;61921;53.226;-1.296;2023-04-01T04:28:46;99140.36;;;7.02;100.00
73624;BME280;61921;53.226;-1.296;2023-04-01T04:31:12;99143.99;;;6.99;100.00
73624;BME280;61921;53.226;-1.296;2023-04-01T04:33:37;99149.49;;;7.00;100.00
73624;BME280;61921;53.226;-1.296;2023-04-01T04:36:04;99145.83;;;7.04;100.00
73624;BME280;61921;53.226;-1.296;2023-04-01T04:38:29;99148.81;;;7.03;100.00
73624;BME280;61921;53.226;-1.296;2023-04-01T04:40:54;99150.14;;;7.09;100.00
73624;BME280;61921;53.226;-1.296;2023-04-01T04:43:19;99151.09;;;7.08;100.00
73624;BME280;61921;53.226;-1.296;2023-04-01T04:45:45;99160.88;;;7.00;100.00
73624;BME280;61921;53.226;-1.296;2023-04-01T04:48:11;99163.99;;;6.98;100.00
73624;BME280;61921;53.226;-1.296;2023-04-01T04:50:36;99167.05;;;6.98;100.00
73624;BME280;61921;53.226;-1.296;2023-04-01T04:53:01;99165.51;;;6.93;100.00
73624;BME280;61921;53.226;-1.296;2023-04-01T04:55:27;99168.81;;;6.87;100.00
73624;BME280;61921;53.226;-1.296;2023-04-01T04:57:52;99169.90;;;6.87;100.00
73624;BME280;61921;53.226;-1.296;2023-04-01T05:00:18;99171.40;;;6.88;100.00
73624;BME280;61921;53.226;-1.296;2023-04-01T05:02:43;99169.59;;;6.87;100.00
73624;BME280;61921;53.226;-1.296;2023-04-01T05:05:09;99163.89;;;6.87;100.00
73624;BME280;61921;53.226;-1.296;2023-04-01T05:07:34;99168.78;;;6.88;100.00
73624;BME280;61921;53.226;-1.296;2023-04-01T05:09:59;99171.92;;;6.86;100.00
73624;BME280;61921;53.226;-1.296;2023-04-01T05:12:26;99171.97;;;6.90;100.00
73624;BME280;61921;53.226;-1.296;2023-04-01T05:14:50;99176.40;;;6.84;100.00
73624;BME280;61921;53.226;-1.296;2023-04-01T05:17:16;99183.45;;;6.77;100.00
73624;BME280;61921;53.226;-1.296;2023-04-01T05:19:42;99190.01;;;6.69;100.00
73624;BME280;61921;53.226;-1.296;2023-04-01T05:22:07;99193.88;;;6.75;100.00
73624;BME280;61921;53.226;-1.296;2023-04-01T05:24:33;99194.60;;;6.78;100.00
73624;BME280;61921;53.226;-1.296;2023-04-01T05:26:58;99194.10;;;6.78;100.00
73624;BME280;61921;53.226;-1.296;2023-04-01T05:29:24;99197.30;;;6.84;100.00
73624;BME280;61921;53.226;-1.296;2023-04-01T05:31:50;99196.17;;;6.80;100.00
73624;BME280;61921;53.226;-1.296;2023-04-01T05:34:15;99203.16;;;6.73;100.00
73624;BME280;61921;53.226;-1.296;2023-04-01T05:36:41;99203.50;;;6.65;100.00
73624;BME280;61921;53.226;-1.296;2023-04-01T05:39:06;99215.86;;;6.74;100.00
73624;BME280;61921;53.226;-1.296;2023-04-01T05:41:31;99222.20;;;6.68;100.00
73624;BME280;61921;53.226;-1.296;2023-04-01T05:43:57;99227.23;;;6.79;100.00
73624;BME280;61921;53.226;-1.296;2023-04-01T05:46:23;99229.55;;;6.67;100.00
73624;BME280;61921;53.226;-1.296;2023-04-01T05:48:48;99235.58;;;6.76;100.00
73624;BME280;61921;53.226;-1.296;2023-04-01T05:51:14;99238.99;;;6.68;100.00
73624;BME280;61921;53.226;-1.296;2023-04-01T05:53:39;99245.10;;;6.68;100.00
73624;BME280;61921;53.226;-1.296;2023-04-01T05:56:05;99251.18;;;6.64;100.00
73624;BME280;61921;53.226;-1.296;2023-04-01T05:58:30;99253.14;;;6.68;100.00
73624;BME280;61921;53.226;-1.296;2023-04-01T06:01:00;99252.53;;;6.65;100.00
73624;BME280;61921;53.226;-1.296;2023-04-01T06:03:21;99256.84;;;6.61;100.00
73624;BME280;61921;53.226;-1.296;2023-04-01T06:05:47;99258.62;;;6.74;100.00
73624;BME280;61921;53.226;-1.296;2023-04-01T06:08:14;99262.24;;;6.65;100.00
73624;BME280;61921;53.226;-1.296;2023-04-01T06:10:49;99266.68;;;6.64;100.00
73624;BME280;61921;53.226;-1.296;2023-04-01T06:13:05;99274.33;;;6.68;100.00
73624;BME280;61921;53.226;-1.296;2023-04-01T06:15:35;99277.27;;;6.75;100.00
73624;BME280;61921;53.226;-1.296;2023-04-01T06:20:25;99281.67;;;6.74;100.00
73624;BME280;61921;53.226;-1.296;2023-04-01T06:22:57;99288.28;;;6.70;100.00
73624;BME280;61921;53.226;-1.296;2023-04-01T06:25:27;99290.05;;;6.66;100.00
73624;BME280;61921;53.226;-1.296;2023-04-01T06:27:48;99297.56;;;6.75;100.00
73624;BME280;61921;53.226;-1.296;2023-04-01T06:30:26;99302.67;;;6.69;100.00
73624;BME280;61921;53.226;-1.296;2023-04-01T06:32:40;99306.31;;;6.78;100.00
73624;BME280;61921;53.226;-1.296;2023-04-01T06:39:53;99310.36;;;6.77;100.00
73624;BME280;61921;53.226;-1.296;2023-04-01T06:42:22;99315.22;;;6.79;100.00
73624;BME280;61921;53.226;-1.296;2023-04-01T06:44:41;99316.58;;;6.69;100.00
73624;BME280;61921;53.226;-1.296;2023-04-01T06:47:07;99318.73;;;6.82;100.00
73624;BME280;61921;53.226;-1.296;2023-04-01T06:49:40;99317.66;;;6.78;100.00
73624;BME280;61921;53.226;-1.296;2023-04-01T06:51:58;99318.77;;;6.79;100.00
73624;BME280;61921;53.226;-1.296;2023-04-01T06:54:21;99327.32;;;6.97;100.00
73624;BME280;61921;53.226;-1.296;2023-04-01T06:56:45;99327.77;;;6.99;100.00
73624;BME280;61921;53.226;-1.296;2023-04-01T06:59:11;99334.90;;;6.89;100.00
73624;BME280;61921;53.226;-1.296;2023-04-01T07:01:37;99339.64;;;6.88;100.00
73624;BME280;61921;53.226;-1.296;2023-04-01T07:04:02;99343.48;;;6.97;100.00
73624;BME280;61921;53.226;-1.296;2023-04-01T07:06:29;99344.54;;;7.06;100.00
73624;BME280;61921;53.226;-1.296;2023-04-01T07:08:51;99349.53;;;7.12;100.00
73624;BME280;61921;53.226;-1.296;2023-04-01T07:11:22;99349.50;;;7.18;100.00
73624;BME280;61921;53.226;-1.296;2023-04-01T07:13:46;99352.28;;;7.12;100.00
73624;BME280;61921;53.226;-1.296;2023-04-01T07:16:12;99350.03;;;7.25;100.00
73624;BME280;61921;53.226;-1.296;2023-04-01T07:18:38;99354.07;;;7.30;100.00
73624;BME280;61921;53.226;-1.296;2023-04-01T07:20:59;99354.10;;;7.36;100.00
73624;BME280;61921;53.226;-1.296;2023-04-01T07:23:26;99354.83;;;7.36;100.00
73624;BME280;61921;53.226;-1.296;2023-04-01T07:25:53;99360.78;;;7.54;100.00
73624;BME280;61921;53.226;-1.296;2023-04-01T07:28:16;99364.37;;;7.62;100.00
73624;BME280;61921;53.226;-1.296;2023-04-01T07:30:48;99367.43;;;7.75;100.00
73624;BME280;61921;53.226;-1.296;2023-04-01T07:33:10;99372.64;;;7.39;100.00
73624;BME280;61921;53.226;-1.296;2023-04-01T07:35:35;99379.16;;;7.31;100.00
73624;BME280;61921;53.226;-1.296;2023-04-01T07:38:07;99380.70;;;7.24;100.00
73624;BME280;61921;53.226;-1.296;2023-04-01T07:40:29;99384.76;;;7.31;100.00
73624;BME280;61921;53.226;-1.296;2023-04-01T07:43:02;99388.06;;;7.34;100.00
73624;BME280;61921;53.226;-1.296;2023-04-01T07:45:19;99391.98;;;7.21;100.00
73624;BME280;61921;53.226;-1.296;2023-04-01T07:47:52;99395.20;;;7.34;100.00
73624;BME280;61921;53.226;-1.296;2023-04-01T07:50:13;99401.09;;;7.29;100.00
73624;BME280;61921;53.226;-1.296;2023-04-01T07:52:36;99403.33;;;7.44;100.00
73624;BME280;61921;53.226;-1.296;2023-04-01T07:54:59;99411.07;;;7.64;100.00
73624;BME280;61921;53.226;-1.296;2023-04-01T07:57:24;99418.46;;;7.67;100.00
73624;BME280;61921;53.226;-1.296;2023-04-01T07:59:56;99418.70;;;7.86;99.39
73624;BME280;61921;53.226;-1.296;2023-04-01T08:02:21;99420.07;;;7.74;97.92
73624;BME280;61921;53.226;-1.296;2023-04-01T08:04:48;99425.48;;;7.88;99.64
73624;BME280;61921;53.226;-1.296;2023-04-01T08:07:08;99427.02;;;7.64;97.48
73624;BME280;61921;53.226;-1.296;2023-04-01T08:09:34;99432.99;;;7.65;98.23
73624;BME280;61921;53.226;-1.296;2023-04-01T08:12:04;99432.68;;;7.85;98.63
73624;BME280;61921;53.226;-1.296;2023-04-01T08:14:26;99434.91;;;8.00;98.16
73624;BME280;61921;53.226;-1.296;2023-04-01T08:16:49;99442.55;;;7.94;97.39
73624;BME280;61921;53.226;-1.296;2023-04-01T08:19:20;99447.64;;;8.00;97.48
73624;BME280;61921;53.226;-1.296;2023-04-01T08:21:42;99450.73;;;8.00;96.44
73624;BME280;61921;53.226;-1.296;2023-04-01T08:24:11;99453.85;;;7.92;96.02
73624;BME280;61921;53.226;-1.296;2023-04-01T08:26:34;99456.31;;;8.22;96.04
73624;BME280;61921;53.226;-1.296;2023-04-01T08:28:58;99457.82;;;8.16;94.34
73624;BME280;61921;53.226;-1.296;2023-04-01T08:31:22;99457.13;;;8.02;94.60
73624;BME280;61921;53.226;-1.296;2023-04-01T08:33:46;99460.65;;;8.24;95.51
73624;BME280;61921;53.226;-1.296;2023-04-01T08:36:12;99464.74;;;8.06;95.58
73624;BME280;61921;53.226;-1.296;2023-04-01T08:38:40;99469.48;;;8.03;95.44
73624;BME280;61921;53.226;-1.296;2023-04-01T08:41:10;99476.32;;;8.11;95.48
73624;BME280;61921;53.226;-1.296;2023-04-01T08:43:40;99474.24;;;8.10;95.09
73624;BME280;61921;53.226;-1.296;2023-04-01T08:46:06;99477.57;;;8.00;96.41
73624;BME280;61921;53.226;-1.296;2023-04-01T08:48:28;99484.54;;;7.95;95.94
73624;BME280;61921;53.226;-1.296;2023-04-01T08:50:57;99486.61;;;8.11;96.38
73624;BME280;61921;53.226;-1.296;2023-04-01T08:53:12;99488.04;;;8.14;96.79
73624;BME280;61921;53.226;-1.296;2023-04-01T08:55:44;99492.49;;;7.99;95.77
73624;BME280;61921;53.226;-1.296;2023-04-01T08:58:15;99492.45;;;7.80;96.04
73624;BME280;61921;53.226;-1.296;2023-04-01T09:00:30;99497.14;;;8.05;96.59
73624;BME280;61921;53.226;-1.296;2023-04-01T09:05:24;99505.64;;;8.09;96.10
73624;BME280;61921;53.226;-1.296;2023-04-01T09:07:49;99511.31;;;7.95;95.05
73624;BME280;61921;53.226;-1.296;2023-04-01T09:12:43;99512.83;;;7.84;95.06
73624;BME280;61921;53.226;-1.296;2023-04-01T09:17:39;99515.79;;;7.96;96.42
73624;BME280;61921;53.226;-1.296;2023-04-01T09:20:00;99519.69;;;8.21;94.93
73624;BME280;61921;53.226;-1.296;2023-04-01T09:22:22;99514.80;;;8.32;93.96
73624;BME280;61921;53.226;-1.296;2023-04-01T09:27:10;99522.66;;;8.64;93.11
73624;BME280;61921;53.226;-1.296;2023-04-01T09:29:44;99522.60;;;9.02;93.06
73624;BME280;61921;53.226;-1.296;2023-04-01T09:32:12;99524.36;;;9.11;91.64
73624;BME280;61921;53.226;-1.296;2023-04-01T09:34:31;99524.52;;;9.35;89.26
73624;BME280;61921;53.226;-1.296;2023-04-01T09:36:53;99529.13;;;8.80;87.61
73624;BME280;61921;53.226;-1.296;2023-04-01T09:39:26;99530.78;;;8.80;90.33
73624;BME280;61921;53.226;-1.296;2023-04-01T09:41:46;99535.82;;;8.55;91.41
73624;BME280;61921;53.226;-1.296;2023-04-01T09:44:06;99535.20;;;8.65;91.34
73624;BME280;61921;53.226;-1.296;2023-04-01T09:46:37;99538.41;;;8.55;89.99
73624;BME280;61921;53.226;-1.296;2023-04-01T09:49:14;99538.52;;;8.43;90.33
73624;BME280;61921;53.226;-1.296;2023-04-01T09:51:29;99544.61;;;8.48;90.08
73624;BME280;61921;53.226;-1.296;2023-04-01T09:53:57;99545.19;;;8.55;89.54
73624;BME280;61921;53.226;-1.296;2023-04-01T09:56:23;99552.58;;;8.66;90.07
73624;BME280;61921;53.226;-1.296;2023-04-01T10:01:16;99565.45;;;8.45;90.47
73624;BME280;61921;53.226;-1.296;2023-04-01T10:08:33;99579.70;;;8.49;91.11
73624;BME280;61921;53.226;-1.296;2023-04-01T10:18:18;99591.88;;;8.42;91.15
73624;BME280;61921;53.226;-1.296;2023-04-01T10:20:45;99594.18;;;8.21;90.74
73624;BME280;61921;53.226;-1.296;2023-04-01T10:23:12;99598.34;;;8.16;90.47
73624;BME280;61921;53.226;-1.296;2023-04-01T10:25:36;99603.73;;;8.21;90.74
73624;BME280;61921;53.226;-1.296;2023-04-01T10:27:49;99605.95;;;8.25;91.74
73624;BME280;61921;53.226;-1.296;2023-04-01T10:30:23;99607.99;;;8.26;92.35
73624;BME280;61921;53.226;-1.296;2023-04-01T10:32:49;99611.02;;;8.31;90.67
73624;BME280;61921;53.226;-1.296;2023-04-01T10:35:20;99612.59;;;8.26;89.94
73624;BME280;61921;53.226;-1.296;2023-04-01T10:37:39;99616.92;;;8.39;89.56
73624;BME280;61921;53.226;-1.296;2023-04-01T10:47:28;99629.47;;;8.62;88.40
73624;BME280;61921;53.226;-1.296;2023-04-01T10:49:48;99634.08;;;8.60;87.66
73624;BME280;61921;53.226;-1.296;2023-04-01T10:52:10;99637.83;;;8.61;86.51
73624;BME280;61921;53.226;-1.296;2023-04-01T10:56:54;99642.13;;;8.80;85.67
73624;BME280;61921;53.226;-1.296;2023-04-01T11:16:26;99661.80;;;9.72;82.05
73624;BME280;61921;53.226;-1.296;2023-04-01T11:23:37;99679.78;;;9.34;81.50
73624;BME280;61921;53.226;-1.296;2023-04-01T11:26:06;99681.19;;;9.64;81.41
73624;BME280;61921;53.226;-1.296;2023-04-01T11:28:32;99680.10;;;9.89;79.71
73624;BME280;61921;53.226;-1.296;2023-04-01T11:30:53;99685.74;;;9.92;80.43
73624;BME280;61921;53.226;-1.296;2023-04-01T11:33:14;99694.66;;;9.68;80.86
73624;BME280;61921;53.226;-1.296;2023-04-01T11:35:52;99699.23;;;9.37;79.17
73624;BME280;61921;53.226;-1.296;2023-04-01T11:38:09;99705.42;;;9.31;80.47
73624;BME280;61921;53.226;-1.296;2023-04-01T11:40:37;99707.18;;;9.35;78.68
73624;BME280;61921;53.226;-1.296;2023-04-01T11:42:57;99710.30;;;9.52;79.57
73624;BME280;61921;53.226;-1.296;2023-04-01T11:45:23;99712.48;;;9.54;78.24
73624;BME280;61921;53.226;-1.296;2023-04-01T11:47:56;99714.43;;;9.76;78.04
73624;BME280;61921;53.226;-1.296;2023-04-01T11:50:21;99709.08;;;10.05;78.52
73624;BME280;61921;53.226;-1.296;2023-04-01T11:52:43;99712.92;;;10.19;76.11
73624;BME280;61921;53.226;-1.296;2023-04-01T11:55:12;99716.97;;;10.24;75.17
73624;BME280;61921;53.226;-1.296;2023-04-01T12:02:20;99735.04;;;9.93;76.70
73624;BME280;61921;53.226;-1.296;2023-04-01T12:07:15;99739.40;;;9.78;77.59
73624;BME280;61921;53.226;-1.296;2023-04-01T12:09:37;99741.50;;;9.95;80.45
73624;BME280;61921;53.226;-1.296;2023-04-01T12:12:06;99747.29;;;9.74;79.59
73624;BME280;61921;53.226;-1.296;2023-04-01T12:14:27;99749.17;;;9.65;80.77
73624;BME280;61921;53.226;-1.296;2023-04-01T12:16:55;99759.22;;;9.51;81.53
73624;BME280;61921;53.226;-1.296;2023-04-01T12:19:20;99765.28;;;9.41;82.60
73624;BME280;61921;53.226;-1.296;2023-04-01T12:21:41;99770.80;;;9.42;83.12
73624;BME280;61921;53.226;-1.296;2023-04-01T12:26:41;99774.89;;;9.61;82.84
73624;BME280;61921;53.226;-1.296;2023-04-01T12:29:08;99777.77;;;9.50;81.69
73624;BME280;61921;53.226;-1.296;2023-04-01T12:31:28;99781.72;;;9.65;82.41
73624;BME280;61921;53.226;-1.296;2023-04-01T12:33:56;99783.90;;;9.76;80.62
73624;BME280;61921;53.226;-1.296;2023-04-01T12:36:19;99785.45;;;9.96;81.43
73624;BME280;61921;53.226;-1.296;2023-04-01T12:38:43;99783.76;;;10.06;79.75
73624;BME280;61921;53.226;-1.296;2023-04-01T12:41:08;99787.13;;;9.92;77.90
73624;BME280;61921;53.226;-1.296;2023-04-01T12:43:40;99790.44;;;9.78;79.57
73624;BME280;61921;53.226;-1.296;2023-04-01T12:46:00;99791.55;;;9.55;80.25
73624;BME280;61921;53.226;-1.296;2023-04-01T12:48:30;99797.19;;;9.54;81.69
73624;BME280;61921;53.226;-1.296;2023-04-01T12:50:57;99799.82;;;9.49;81.26
73624;BME280;61921;53.226;-1.296;2023-04-01T12:53:21;99804.78;;;9.39;81.61
73624;BME280;61921;53.226;-1.296;2023-04-01T12:55:39;99806.48;;;9.44;82.16
73624;BME280;61921;53.226;-1.296;2023-04-01T13:00:35;99812.25;;;9.60;80.96
73624;BME280;61921;53.226;-1.296;2023-04-01T13:02:59;99817.67;;;9.80;79.93
73624;BME280;61921;53.226;-1.296;2023-04-01T13:05:26;99822.26;;;9.99;79.24
73624;BME280;61921;53.226;-1.296;2023-04-01T13:07:52;99823.60;;;9.98;79.46
73624;BME280;61921;53.226;-1.296;2023-04-01T13:10:13;99827.36;;;10.07;79.59
73624;BME280;61921;53.226;-1.296;2023-04-01T13:12:45;99832.90;;;10.07;79.93
73624;BME280;61921;53.226;-1.296;2023-04-01T13:15:06;99838.14;;;10.06;80.34
73624;BME280;61921;53.226;-1.296;2023-04-01T13:17:27;99841.60;;;9.93;80.00
73624;BME280;61921;53.226;-1.296;2023-04-01T13:19:51;99842.14;;;9.64;79.17
73624;BME280;61921;53.226;-1.296;2023-04-01T13:22:17;99841.78;;;9.70;79.80
73624;BME280;61921;53.226;-1.296;2023-04-01T13:24:44;99845.20;;;9.77;78.98
73624;BME280;61921;53.226;-1.296;2023-04-01T13:27:10;99848.28;;;9.80;78.62
73624;BME280;61921;53.226;-1.296;2023-04-01T13:29:34;99850.48;;;9.79;79.22
73624;BME280;61921;53.226;-1.296;2023-04-01T13:32:06;99855.44;;;9.76;78.89
73624;BME280;61921;53.226;-1.296;2023-04-01T13:34:33;99858.46;;;9.78;78.71
73624;BME280;61921;53.226;-1.296;2023-04-01T13:36:54;99864.07;;;9.81;78.81
73624;BME280;61921;53.226;-1.296;2023-04-01T13:39:22;99865.35;;;9.87;78.21
73624;BME280;61921;53.226;-1.296;2023-04-01T13:41:49;99869.20;;;9.91;77.47
73624;BME280;61921;53.226;-1.296;2023-04-01T13:44:09;99874.56;;;10.06;76.79
73624;BME280;61921;53.226;-1.296;2023-04-01T13:46:38;99877.17;;;10.09;77.71
73624;BME280;61921;53.226;-1.296;2023-04-01T13:49:07;99882.34;;;10.13;76.73
73624;BME280;61921;53.226;-1.296;2023-04-01T13:51:25;99887.06;;;10.29;77.25
73624;BME280;61921;53.226;-1.296;2023-04-01T13:56:15;99890.94;;;9.99;75.14
73624;BME280;61921;53.226;-1.296;2023-04-01T13:58:49;99896.06;;;10.23;76.04
73624;BME280;61921;53.226;-1.296;2023-04-01T14:01:06;99901.13;;;10.09;74.70
73624;BME280;61921;53.226;-1.296;2023-04-01T14:03:30;99900.13;;;10.21;74.33
73624;BME280;61921;53.226;-1.296;2023-04-01T14:06:00;99902.97;;;10.35;74.49